Time;durP1;ratioP1;P1;durP2;ratioP2;P2;SDS_P1;SDS_P2;PMS_P1;PMS_P2;Temp;Humidity;BMP_temperature;BMP_pressure;BME280_temperature;BME280_humidity;BME280_pressure;Samples;Min_cycle;Max_cycle;Signal;HPM_P1;HPM_P2
2022/12/17 13:06:42;;;;;;;81.57;39.33;;;;;;;7.27;50.34;102647.16;5129650;27;20038;-71
2022/12/17 13:09:14;;;;;;;80.50;38.20;;;;;;;7.46;49.11;102655.56;5109855;27;20134;-71
2022/12/17 13:11:44;;;;;;;79.53;37.53;;;;;;;7.30;50.53;102648.97;5109103;28;20495;-71
2022/12/17 13:14:18;;;;;;;79.67;37.47;;;;;;;7.58;49.74;102640.34;5099982;27;20555;-71
2022/12/17 13:16:43;;;;;;;83.03;38.83;;;;;;;7.25;50.71;102635.84;5114545;27;20027;-71
2022/12/17 13:19:39;;;;;;;88.03;39.57;;;;;;;6.67;51.25;102639.06;5130931;27;20528;-71
2022/12/17 13:22:13;;;;;;;89.70;40.20;;;;;;;7.42;49.67;102633.75;5025947;27;20111;-71
2022/12/17 13:24:40;;;;;;;91.50;40.60;;;;;;;7.43;49.34;102632.03;5131474;27;20027;-71
2022/12/17 13:27:30;;;;;;;88.07;38.63;;;;;;;6.91;51.44;102623.41;5112479;27;20026;-71
2022/12/17 13:29:56;;;;;;;87.87;40.60;;;;;;;7.14;50.21;102624.19;5110185;27;20039;-71
2022/12/17 13:32:32;;;;;;;83.90;39.87;;;;;;;7.24;50.40;102622.75;5111941;27;20061;-71
2022/12/17 13:35:06;;;;;;;95.33;41.30;;;;;;;7.34;50.07;102624.84;5114411;27;20031;-70
2022/12/17 13:37:54;;;;;;;99.93;43.47;;;;;;;6.83;50.55;102625.75;5100879;28;20114;-71
2022/12/17 13:40:25;;;;;;;83.77;39.93;;;;;;;7.66;49.18;102621.47;5109231;27;20126;-71
2022/12/17 13:42:51;;;;;;;99.03;40.13;;;;;;;7.27;50.13;102618.53;5132607;27;20027;-71
2022/12/17 13:45:21;;;;;;;89.40;38.97;;;;;;;6.90;50.50;102617.34;5114161;27;20378;-70
2022/12/17 13:47:58;;;;;;;90.27;41.63;;;;;;;6.30;51.32;102622.16;5134123;27;20106;-71
2022/12/17 13:50:28;;;;;;;89.67;39.90;;;;;;;5.98;53.10;102624.47;5112281;27;20034;-71
2022/12/17 13:52:54;;;;;;;93.93;39.93;;;;;;;7.39;50.32;102627.56;5133071;27;20027;-71
2022/12/17 13:55:24;;;;;;;84.23;35.40;;;;;;;6.19;51.94;102626.97;5132394;27;20432;-71
2022/12/17 13:57:50;;;;;;;86.07;38.33;;;;;;;6.29;52.11;102636.84;5114266;27;20395;-71
2022/12/17 14:00:19;;;;;;;82.83;37.63;;;;;;;6.19;53.01;102630.44;5110336;27;20083;-72
2022/12/17 14:02:44;;;;;;;94.00;40.67;;;;;;;6.47;52.23;102631.47;5113281;27;20096;-71
2022/12/17 14:05:31;;;;;;;84.57;37.60;;;;;;;6.48;52.61;102635.81;5113996;27;20023;-71
2022/12/17 14:08:00;;;;;;;91.50;39.87;;;;;;;6.41;52.14;102636.41;5094023;28;20031;-71
2022/12/17 14:10:27;;;;;;;89.73;38.37;;;;;;;6.54;51.39;102633.44;5099999;28;20077;-71
2022/12/17 14:13:12;;;;;;;85.27;36.70;;;;;;;6.52;52.22;102635.06;5112758;27;20027;-71
2022/12/17 14:15:43;;;;;;;74.47;33.40;;;;;;;5.86;52.10;102638.69;5114042;27;20398;-71
2022/12/17 14:18:13;;;;;;;88.10;38.57;;;;;;;6.19;53.08;102634.75;5113782;27;20077;-71
2022/12/17 14:20:39;;;;;;;95.80;37.77;;;;;;;6.69;50.99;102643.50;5111385;27;20073;-72
2022/12/17 14:23:10;;;;;;;83.97;36.73;;;;;;;6.28;51.43;102641.16;5114594;27;20497;-72
2022/12/17 14:25:38;;;;;;;84.80;33.77;;;;;;;6.03;53.31;102654.06;5110768;27;20108;-71
2022/12/17 14:28:24;;;;;;;82.43;34.53;;;;;;;5.80;53.46;102661.84;5112533;27;20035;-71
2022/12/17 14:30:51;;;;;;;88.53;35.53;;;;;;;6.40;51.48;102658.94;5112939;27;20379;-71
2022/12/17 14:33:26;;;;;;;88.43;35.50;;;;;;;5.36;54.82;102668.72;5133160;27;20128;-72
2022/12/17 14:35:53;;;;;;;89.03;34.33;;;;;;;6.33;52.15;102661.22;5112800;27;20027;-72
2022/12/17 14:38:19;;;;;;;81.10;32.40;;;;;;;5.43;53.89;102670.75;5130300;27;20105;-71
2022/12/17 14:40:45;;;;;;;94.63;35.87;;;;;;;5.90;53.46;102666.53;5128103;27;20113;-72
2022/12/17 14:43:12;;;;;;;92.80;35.77;;;;;;;6.30;51.41;102659.41;5113561;27;20510;-71
2022/12/17 14:46:19;;;;;;;91.77;35.60;;;;;;;6.20;51.42;102658.19;5111184;27;20079;-72
2022/12/17 14:51:22;;;;;;;101.63;38.33;;;;;;;5.67;53.86;102675.13;5122905;27;20046;-71
2022/12/17 14:53:48;;;;;;;100.50;39.77;;;;;;;5.26;53.92;102678.72;5112444;27;20042;-72
2022/12/17 14:56:21;;;;;;;97.83;37.47;;;;;;;6.27;51.71;102677.47;5111280;27;20027;-71
2022/12/17 14:58:47;;;;;;;124.27;52.47;;;;;;;5.71;52.96;102684.81;5111914;27;20072;-72
2022/12/17 15:01:13;;;;;;;94.40;36.97;;;;;;;5.48;52.75;102679.59;5110476;27;20093;-72
2022/12/17 15:03:45;;;;;;;102.77;37.60;;;;;;;5.26;54.03;102689.09;5112180;27;20019;-72
2022/12/17 15:06:14;;;;;;;92.40;35.17;;;;;;;5.60;53.42;102679.19;5113107;27;20130;-71
2022/12/17 15:08:42;;;;;;;86.20;34.33;;;;;;;5.94;52.28;102680.53;5111110;27;20026;-71
2022/12/17 15:11:11;;;;;;;98.73;35.47;;;;;;;5.67;52.73;102685.53;5108709;27;20030;-71
2022/12/17 15:13:36;;;;;;;102.23;35.60;;;;;;;5.35;54.13;102682.53;5114104;27;20427;-71
2022/12/17 15:16:02;;;;;;;88.97;35.97;;;;;;;4.82;55.48;102689.78;5127520;27;20088;-71
2022/12/17 15:18:27;;;;;;;100.93;37.10;;;;;;;4.53;57.28;102686.81;5110008;27;20026;-72
2022/12/17 15:20:53;;;;;;;101.70;37.47;;;;;;;5.24;54.36;102690.72;5110924;27;20051;-71
2022/12/17 15:23:20;;;;;;;103.00;34.63;;;;;;;5.08;54.64;102698.69;5128310;27;20019;-71
2022/12/17 15:25:48;;;;;;;105.33;36.43;;;;;;;4.65;56.47;102699.41;5109109;27;20028;-72
2022/12/17 15:28:15;;;;;;;100.87;36.67;;;;;;;5.36;54.87;102703.31;5108684;27;20153;-72
2022/12/17 15:30:40;;;;;;;102.97;36.57;;;;;;;5.48;53.91;102704.66;5104492;27;20034;-71
2022/12/17 15:33:07;;;;;;;102.13;35.03;;;;;;;5.39;54.53;102706.03;5128739;27;20027;-71
2022/12/17 15:35:33;;;;;;;108.40;37.13;;;;;;;5.27;55.10;102715.91;5106266;27;20743;-72
2022/12/17 15:37:59;;;;;;;113.97;39.60;;;;;;;5.23;54.01;102714.91;5099592;27;20023;-71
2022/12/17 15:40:24;;;;;;;103.37;36.23;;;;;;;4.75;56.41;102724.91;5105145;27;21442;-71
2022/12/17 15:45:34;;;;;;;113.87;36.23;;;;;;;5.28;54.95;102720.28;5128741;27;20037;-71
2022/12/17 15:48:00;;;;;;;113.73;36.80;;;;;;;5.03;55.14;102731.31;5109294;27;20027;-71
2022/12/17 15:50:25;;;;;;;106.67;37.37;;;;;;;5.75;53.61;102725.63;5107328;27;20034;-71
2022/12/17 15:52:51;;;;;;;109.77;37.97;;;;;;;5.52;53.40;102730.78;5108704;27;20273;-72
2022/12/17 15:55:16;;;;;;;103.83;38.00;;;;;;;5.20;54.58;102727.72;5104051;27;20032;-71
2022/12/17 15:57:42;;;;;;;116.10;36.63;;;;;;;5.55;53.70;102728.31;5111458;28;20055;-72
2022/12/17 16:00:08;;;;;;;117.30;39.93;;;;;;;5.33;54.66;102734.31;5110824;28;20027;-71
2022/12/17 16:02:33;;;;;;;110.23;38.13;;;;;;;6.09;52.00;102732.19;5113254;28;20510;-71
2022/12/17 16:04:58;;;;;;;114.73;38.73;;;;;;;6.04;50.47;102725.94;5112130;28;20114;-71
2022/12/17 16:07:25;;;;;;;119.10;38.67;;;;;;;5.97;51.93;102731.69;5130844;27;20102;-71
2022/12/17 16:09:50;;;;;;;120.40;40.50;;;;;;;5.18;53.82;102731.97;5127471;27;20110;-71
2022/12/17 16:12:16;;;;;;;121.47;37.90;;;;;;;4.96;55.44;102735.34;5107823;28;20114;-71
2022/12/17 16:14:41;;;;;;;113.27;36.10;;;;;;;5.63;53.11;102727.72;5125444;27;20019;-71
2022/12/17 16:17:07;;;;;;;117.90;39.20;;;;;;;5.89;53.25;102740.06;5110729;28;20062;-72
2022/12/17 16:19:32;;;;;;;111.63;37.03;;;;;;;5.36;53.82;102737.03;5113184;27;20195;-71
2022/12/17 16:21:57;;;;;;;112.53;38.77;;;;;;;5.13;53.82;102728.28;5116429;27;20023;-72
2022/12/17 16:24:23;;;;;;;113.60;39.17;;;;;;;5.41;52.69;102739.81;5129203;27;20166;-71
2022/12/17 16:26:48;;;;;;;105.93;36.40;;;;;;;5.45;53.16;102741.72;5129434;27;20011;-72
2022/12/17 16:29:14;;;;;;;115.53;37.70;;;;;;;5.30;53.47;102735.88;5114673;27;20423;-71
2022/12/17 16:31:39;;;;;;;109.93;35.83;;;;;;;5.69;53.18;102738.38;5133099;27;20099;-71
2022/12/17 16:34:09;;;;;;;125.53;37.53;;;;;;;5.99;52.19;102735.25;5134961;27;20098;-72
2022/12/17 16:36:35;;;;;;;126.13;38.30;;;;;;;4.63;55.63;102756.34;5117185;27;20022;-71
2022/12/17 16:39:00;;;;;;;136.03;42.83;;;;;;;5.77;53.28;102739.56;5134053;27;20027;-72
2022/12/17 16:41:26;;;;;;;119.37;37.77;;;;;;;5.66;53.38;102746.00;5115103;27;20371;-71
2022/12/17 16:43:51;;;;;;;131.30;39.80;;;;;;;4.46;55.72;102752.09;5116848;27;20026;-71
2022/12/17 16:46:34;;;;;;;137.90;39.80;;;;;;;4.61;55.63;102751.91;5116805;27;20019;-71
2022/12/17 16:49:10;;;;;;;131.15;38.55;;;;;;;5.13;55.67;102737.78;5116155;27;20027;-72
2022/12/17 16:51:35;;;;;;;129.73;38.63;;;;;;;5.05;55.52;102740.03;5114211;27;20034;-71
2022/12/17 16:54:06;;;;;;;121.17;36.87;;;;;;;4.87;54.61;102725.44;5115018;27;20405;-71
2022/12/17 16:56:32;;;;;;;125.03;38.83;;;;;;;4.71;55.73;102734.25;5111866;27;20042;-71
2022/12/17 16:58:57;;;;;;;128.77;39.93;;;;;;;5.53;54.56;102727.34;5135016;27;20027;-73
2022/12/17 17:01:26;;;;;;;127.97;40.27;;;;;;;5.18;53.78;102731.97;5115660;27;20432;-73
2022/12/17 17:03:52;;;;;;;114.23;35.67;;;;;;;4.31;56.65;102747.97;5115210;27;20023;-72
2022/12/17 17:06:18;;;;;;;109.83;35.80;;;;;;;5.49;55.06;102743.59;5135087;27;20029;-72
2022/12/17 17:08:44;;;;;;;132.90;36.77;;;;;;;5.35;54.39;102744.75;5116418;27;20083;-71
2022/12/17 17:11:11;;;;;;;123.00;37.40;;;;;;;5.10;55.79;102747.19;5115614;27;20027;-72
2022/12/17 17:13:37;;;;;;;120.70;36.20;;;;;;;5.01;56.03;102743.31;5132862;27;20110;-71
2022/12/17 17:16:03;;;;;;;113.50;37.23;;;;;;;5.32;55.13;102744.63;5116219;27;20106;-71
2022/12/17 17:18:29;;;;;;;120.90;36.87;;;;;;;4.82;55.31;102747.69;5133979;27;20023;-72
2022/12/17 17:21:10;;;;;;;117.57;36.10;;;;;;;5.30;54.97;102746.25;5116337;27;20027;-71
2022/12/17 17:23:36;;;;;;;119.67;34.50;;;;;;;4.90;55.57;102751.50;5111763;27;20459;-71
2022/12/17 17:26:01;;;;;;;117.93;35.93;;;;;;;4.51;56.24;102760.97;5115950;27;20051;-71
2022/12/17 17:28:26;;;;;;;129.87;36.00;;;;;;;5.25;54.70;102759.91;5116239;27;20421;-72
2022/12/17 17:30:58;;;;;;;122.77;36.33;;;;;;;4.97;54.87;102756.94;5114991;27;20112;-72
2022/12/17 17:33:28;;;;;;;122.33;34.33;;;;;;;5.42;54.24;102759.75;5115171;27;20126;-71
2022/12/17 17:35:54;;;;;;;131.67;40.23;;;;;;;5.44;54.03;102760.72;5114564;27;20027;-72
2022/12/17 17:38:19;;;;;;;119.50;37.10;;;;;;;5.51;54.91;102765.31;5115007;27;20015;-71
2022/12/17 17:40:44;;;;;;;124.50;37.13;;;;;;;5.28;54.13;102759.16;5115816;27;20026;-71
2022/12/17 17:43:10;;;;;;;117.57;35.50;;;;;;;5.88;52.28;102764.25;5134451;27;20023;-71
2022/12/17 17:45:39;;;;;;;130.17;36.87;;;;;;;5.13;53.87;102759.41;5115027;27;20047;-71
2022/12/17 17:48:04;;;;;;;118.27;36.07;;;;;;;5.18;53.79;102765.66;5114014;27;20042;-71
2022/12/17 17:50:29;;;;;;;117.87;36.23;;;;;;;5.26;53.90;102765.97;5115658;27;20023;-71
2022/12/17 17:52:55;;;;;;;109.03;33.87;;;;;;;4.18;56.79;102777.59;5114764;27;20385;-72
2022/12/17 17:55:20;;;;;;;120.37;33.70;;;;;;;5.06;54.45;102759.94;5115520;27;20359;-71
2022/12/17 17:57:46;;;;;;;110.43;35.17;;;;;;;5.39;53.68;102762.22;5113572;27;20042;-71
2022/12/17 18:00:11;;;;;;;118.37;35.77;;;;;;;5.25;53.21;102762.50;5113924;27;20027;-71
2022/12/17 18:02:37;;;;;;;116.00;34.70;;;;;;;5.07;53.32;102753.97;5114132;27;20046;-71
2022/12/17 18:05:02;;;;;;;124.03;37.37;;;;;;;5.73;52.38;102748.06;5113490;27;20432;-71
2022/12/17 18:07:28;;;;;;;129.17;35.67;;;;;;;5.01;54.13;102751.09;5113559;27;20181;-71
2022/12/17 18:09:54;;;;;;;115.70;36.37;;;;;;;4.38;55.35;102755.22;5133864;27;20058;-71
2022/12/17 18:15:03;;;;;;;100.73;32.17;;;;;;;5.20;54.00;102751.06;5133281;27;20090;-71
2022/12/17 18:17:29;;;;;;;103.00;33.73;;;;;;;5.20;54.32;102760.53;5113824;27;20470;-71
2022/12/17 18:19:54;;;;;;;109.70;35.03;;;;;;;5.47;53.69;102759.94;5132962;27;20098;-71
2022/12/17 18:22:20;;;;;;;107.73;30.73;;;;;;;4.55;54.99;102768.94;5114982;27;20050;-72
2022/12/17 18:24:45;;;;;;;110.97;30.57;;;;;;;5.32;53.93;102755.00;5132663;27;20539;-71
2022/12/17 18:27:10;;;;;;;99.03;31.20;;;;;;;4.71;55.82;102769.63;5113005;27;20030;-71
2022/12/17 18:29:36;;;;;;;107.03;34.27;;;;;;;4.45;55.87;102771.94;5132792;27;20094;-71
2022/12/17 18:32:02;;;;;;;95.50;29.97;;;;;;;3.82;58.21;102771.50;5114897;27;20069;-72
2022/12/17 18:34:28;;;;;;;105.07;32.70;;;;;;;4.62;55.18;102769.22;5129768;27;20023;-71
2022/12/17 18:36:53;;;;;;;117.57;35.50;;;;;;;5.01;53.52;102759.72;5112997;27;20285;-71
2022/12/17 18:39:21;;;;;;;98.57;31.53;;;;;;;4.82;54.59;102758.06;5113887;27;20019;-71
2022/12/17 18:44:34;;;;;;;101.63;32.53;;;;;;;5.33;53.40;102767.13;5133358;27;20272;-71
2022/12/17 18:47:00;;;;;;;102.67;32.93;;;;;;;5.43;52.00;102764.13;5114587;27;20459;-71
2022/12/17 18:49:25;;;;;;;119.17;33.20;;;;;;;4.46;54.92;102781.47;5112722;27;20079;-71
2022/12/17 18:51:52;;;;;;;126.87;31.17;;;;;;;4.10;57.26;102786.69;5099931;28;20049;-71
2022/12/17 18:54:36;;;;;;;118.80;32.90;;;;;;;5.27;54.57;102778.13;5112471;28;20145;-71
2022/12/17 18:57:01;;;;;;;109.37;33.10;;;;;;;4.78;55.20;102792.44;5112694;27;20567;-71
2022/12/17 18:59:28;;;;;;;106.20;30.43;;;;;;;4.30;56.66;102787.66;5132956;27;20031;-72
2022/12/17 19:01:57;;;;;;;117.97;32.03;;;;;;;4.14;57.71;102785.16;5108510;28;20491;-71
2022/12/17 19:04:23;;;;;;;98.50;31.00;;;;;;;3.83;57.99;102800.06;5109294;28;20296;-72
2022/12/17 19:06:50;;;;;;;112.10;33.53;;;;;;;4.80;55.44;102790.78;5112797;28;20037;-71
2022/12/17 19:09:23;;;;;;;101.57;32.47;;;;;;;4.64;55.19;102793.50;5110129;28;20025;-71
2022/12/17 19:11:50;;;;;;;108.47;33.80;;;;;;;5.52;52.86;102789.56;5110042;28;20030;-72
2022/12/17 19:14:16;;;;;;;97.67;31.67;;;;;;;4.22;54.89;102810.56;5109586;28;20050;-71
2022/12/17 19:16:43;;;;;;;95.93;31.27;;;;;;;4.78;53.90;102813.16;5109901;28;20016;-71
2022/12/17 19:19:12;;;;;;;104.10;32.13;;;;;;;5.43;52.20;102803.91;5109359;28;20293;-71
2022/12/17 19:21:38;;;;;;;100.43;35.53;;;;;;;5.46;52.77;102810.94;5109554;28;20347;-71
2022/12/17 19:24:06;;;;;;;111.47;34.33;;;;;;;5.48;51.48;102798.94;5110102;28;20031;-71
2022/12/17 19:26:32;;;;;;;115.33;33.07;;;;;;;5.47;52.29;102807.53;5110434;28;20040;-71
2022/12/17 19:28:58;;;;;;;113.70;31.80;;;;;;;5.37;51.10;102810.53;5110345;28;20368;-71
2022/12/17 19:31:26;;;;;;;110.27;34.33;;;;;;;5.54;51.55;102806.97;5108583;28;20106;-72
2022/12/17 19:34:00;;;;;;;110.00;33.93;;;;;;;4.14;55.02;102809.31;5107889;28;20065;-70
2022/12/17 19:36:27;;;;;;;114.93;35.93;;;;;;;5.19;52.63;102810.63;5109239;28;20019;-71
2022/12/17 19:38:54;;;;;;;105.40;32.17;;;;;;;4.65;54.21;102822.06;5109653;28;20455;-71
2022/12/17 19:41:21;;;;;;;109.50;33.77;;;;;;;4.32;55.00;102821.38;5110452;28;20394;-72
2022/12/17 19:43:53;;;;;;;122.17;36.37;;;;;;;4.45;55.04;102818.56;5110692;28;20317;-72
2022/12/17 19:46:19;;;;;;;101.05;28.42;;;;;;;3.94;56.06;102820.41;5109841;28;20027;-71
2022/12/17 19:48:46;;;;;;;116.97;33.87;;;;;;;4.43;55.53;102822.75;5110443;28;20073;-71
2022/12/17 19:51:12;;;;;;;113.83;35.83;;;;;;;4.98;52.49;102821.81;5109368;28;20387;-71
2022/12/17 19:53:39;;;;;;;115.93;35.93;;;;;;;5.19;52.77;102808.94;5110029;28;20062;-71
2022/12/17 19:56:40;;;;;;;108.47;31.60;;;;;;;4.82;54.20;102817.66;5109106;28;20289;-71
2022/12/17 19:59:06;;;;;;;116.23;34.17;;;;;;;5.32;52.01;102809.47;5103566;28;20289;-72
2022/12/17 20:01:38;;;;;;;120.77;33.40;;;;;;;4.48;53.45;102825.56;5109732;28;20297;-71
2022/12/17 20:04:04;;;;;;;116.93;34.05;;;;;;;4.24;55.21;102821.91;5109464;28;20040;-72
2022/12/17 20:06:32;;;;;;;101.27;30.70;;;;;;;4.06;55.42;102833.94;5109630;28;20037;-72
2022/12/17 20:08:59;;;;;;;109.13;33.13;;;;;;;4.02;55.63;102832.00;5111312;28;20036;-72
2022/12/17 20:11:34;;;;;;;98.10;33.03;;;;;;;4.26;54.37;102834.91;5108833;28;20107;-71
2022/12/17 20:14:05;;;;;;;95.70;28.57;;;;;;;4.87;54.31;102830.81;5108444;28;20289;-71
2022/12/17 20:16:33;;;;;;;109.10;33.00;;;;;;;4.29;54.67;102829.88;5108843;28;20293;-71
2022/12/17 20:19:01;;;;;;;111.73;32.00;;;;;;;4.18;55.18;102828.47;5109966;28;20026;-72
2022/12/17 20:21:26;;;;;;;102.30;28.97;;;;;;;4.19;54.72;102825.97;5108234;28;20024;-72
2022/12/17 20:23:52;;;;;;;108.20;31.23;;;;;;;3.80;55.58;102820.59;5109621;28;20050;-71
2022/12/17 20:26:18;;;;;;;100.93;32.30;;;;;;;5.11;53.50;102815.50;5108057;28;20034;-71
2022/12/17 20:28:44;;;;;;;109.57;30.83;;;;;;;4.90;51.83;102818.91;5109888;28;20024;-71
2022/12/17 20:31:10;;;;;;;109.17;33.20;;;;;;;4.54;53.78;102818.97;5109124;28;20487;-71
2022/12/17 20:33:36;;;;;;;122.47;33.30;;;;;;;4.24;54.19;102821.91;5109054;28;20269;-71
2022/12/17 20:36:11;;;;;;;104.60;31.17;;;;;;;5.00;53.13;102819.28;5108330;28;20081;-71
2022/12/17 20:38:36;;;;;;;105.53;31.87;;;;;;;4.85;52.25;102824.66;5111004;28;20038;-70
2022/12/17 20:41:12;;;;;;;110.80;32.80;;;;;;;4.19;53.05;102823.38;5109441;28;20277;-71
2022/12/17 20:43:38;;;;;;;105.13;32.67;;;;;;;4.84;51.97;102828.97;5109141;28;20027;-71
2022/12/17 20:46:04;;;;;;;97.57;28.67;;;;;;;4.00;54.58;102828.47;5109688;28;20288;-71
2022/12/17 20:48:30;;;;;;;99.03;31.93;;;;;;;3.62;54.67;102830.03;5107895;28;20457;-71
2022/12/17 20:50:55;;;;;;;91.67;27.13;;;;;;;3.39;56.09;102843.56;5110718;28;20269;-71
2022/12/17 20:53:21;;;;;;;113.30;33.57;;;;;;;4.72;53.74;102843.94;5109521;28;20270;-71
2022/12/17 20:55:46;;;;;;;108.17;32.33;;;;;;;4.32;54.34;102849.84;5109141;28;20485;-71
2022/12/17 20:58:12;;;;;;;99.10;28.93;;;;;;;4.33;52.83;102856.81;5109665;28;20015;-72
2022/12/17 21:00:39;;;;;;;111.33;33.13;;;;;;;4.40;53.63;102845.94;5108794;28;20493;-71
2022/12/17 21:03:05;;;;;;;111.33;31.90;;;;;;;4.44;54.05;102834.00;5130473;28;20088;-72
2022/12/17 21:05:33;;;;;;;113.60;32.17;;;;;;;4.34;52.97;102836.16;5114249;27;20268;-71
2022/12/17 21:07:58;;;;;;;97.33;27.53;;;;;;;4.19;52.92;102840.59;5116644;27;20432;-72
2022/12/17 21:10:24;;;;;;;122.77;34.00;;;;;;;4.56;53.53;102845.84;5113880;27;20021;-71
2022/12/17 21:15:33;;;;;;;114.40;31.10;;;;;;;4.45;53.85;102856.50;5134462;27;20414;-71
2022/12/17 21:17:59;;;;;;;110.57;31.90;;;;;;;4.68;52.97;102847.22;5116361;27;20611;-71
2022/12/17 21:20:24;;;;;;;124.80;34.67;;;;;;;3.90;54.01;102856.47;5114459;27;20474;-71
2022/12/17 21:22:49;;;;;;;113.50;33.10;;;;;;;5.16;51.99;102858.03;5113830;27;20113;-71
2022/12/17 21:25:15;;;;;;;117.67;33.43;;;;;;;5.73;50.13;102857.91;5115131;27;20068;-72
2022/12/17 21:27:40;;;;;;;104.27;31.23;;;;;;;5.17;50.93;102861.53;5133748;27;20386;-71
2022/12/17 21:30:06;;;;;;;114.10;33.57;;;;;;;4.98;51.30;102870.19;5115497;27;20023;-71
2022/12/17 21:32:32;;;;;;;116.87;35.93;;;;;;;4.17;53.20;102866.41;5132778;27;20023;-72
2022/12/17 21:34:57;;;;;;;104.67;31.30;;;;;;;4.73;52.44;102866.47;5134422;27;20420;-71
2022/12/17 21:37:22;;;;;;;105.07;33.60;;;;;;;5.36;51.01;102871.03;5112859;27;20047;-71
2022/12/17 21:39:48;;;;;;;109.67;30.67;;;;;;;4.62;53.05;102878.91;5115066;27;20027;-71
2022/12/17 21:43:13;;;;;;;104.50;31.30;;;;;;;4.59;51.69;102884.81;5115865;27;20033;-71
2022/12/17 21:45:08;;;;;;;98.80;31.03;;;;;;;3.36;55.30;102887.34;5113635;27;20031;-72
2022/12/17 21:47:33;;;;;;;108.80;32.83;;;;;;;3.94;55.00;102877.34;5132128;27;20289;-71
2022/12/17 21:49:59;;;;;;;112.33;33.30;;;;;;;4.72;52.94;102875.03;5115470;27;20066;-72
2022/12/17 21:52:25;;;;;;;117.70;33.67;;;;;;;4.87;52.01;102880.94;5113242;27;20362;-71
2022/12/17 21:54:51;;;;;;;79.43;23.30;;;;;;;3.80;54.09;102882.69;5123459;27;20072;-71
2022/12/17 21:57:16;;;;;;;109.93;31.33;;;;;;;4.53;53.73;102894.00;5132603;27;20288;-71
2022/12/17 21:59:42;;;;;;;115.90;33.03;;;;;;;4.28;54.26;102902.31;5109850;27;20027;-71
2022/12/17 22:02:09;;;;;;;128.97;36.53;;;;;;;4.63;52.77;102900.50;5129593;27;20070;-71
2022/12/17 22:04:34;;;;;;;118.47;35.17;;;;;;;4.85;51.87;102908.50;5123042;27;20430;-71
2022/12/17 22:07:00;;;;;;;107.10;30.20;;;;;;;5.40;50.71;102904.06;5115023;27;20261;-71
2022/12/17 22:09:25;;;;;;;126.97;38.07;;;;;;;5.56;50.08;102890.94;5115400;27;20071;-71
2022/12/17 22:14:01;;;;;;;112.50;30.97;;;;;;;3.98;54.29;102898.25;5113513;27;20720;-72
2022/12/17 22:14:36;;;;;;;122.10;38.67;;;;;;;4.15;53.79;102896.53;5130743;27;20500;-71
2022/12/17 22:17:01;;;;;;;116.97;32.70;;;;;;;4.37;53.75;102902.75;5112158;27;20288;-71
2022/12/17 22:19:27;;;;;;;118.77;34.70;;;;;;;5.00;52.42;102900.53;5114544;27;20054;-71
2022/12/17 22:21:52;;;;;;;103.50;30.27;;;;;;;4.14;53.31;102906.81;5133563;27;20383;-71
2022/12/17 22:24:22;;;;;;;112.43;32.70;;;;;;;4.38;53.96;102894.16;5113586;27;20015;-71
2022/12/17 22:26:48;;;;;;;115.10;30.20;;;;;;;4.91;51.83;102888.03;5130529;27;20029;-71
2022/12/17 22:34:45;;;;;;;105.83;30.57;;;;;;;4.80;52.62;102896.16;5131961;27;20802;-71
2022/12/17 22:37:10;;;;;;;105.87;31.30;;;;;;;4.99;51.54;102898.75;5113000;27;20296;-71
2022/12/17 22:39:35;;;;;;;111.70;30.90;;;;;;;5.10;51.20;102905.31;5111849;27;20670;-71
2022/12/17 22:44:45;;;;;;;114.47;33.13;;;;;;;5.02;52.56;102905.81;5131685;27;20092;-71
2022/12/17 22:47:10;;;;;;;112.17;32.03;;;;;;;4.75;51.83;102909.78;5112141;27;20280;-71
2022/12/17 22:49:35;;;;;;;104.77;29.97;;;;;;;4.91;52.33;102888.03;5114351;27;20027;-71
2022/12/17 22:52:01;;;;;;;112.63;31.50;;;;;;;4.90;52.51;102883.69;5113140;27;20019;-71
2022/12/17 22:54:26;;;;;;;108.77;26.30;;;;;;;3.73;56.01;102884.06;5112479;27;20038;-71
2022/12/17 22:56:51;;;;;;;114.27;30.73;;;;;;;4.34;54.47;102882.78;5131173;27;20050;-72
2022/12/17 22:59:18;;;;;;;122.10;31.83;;;;;;;4.44;55.09;102888.38;5112168;27;20031;-71
2022/12/17 23:01:44;;;;;;;110.33;30.73;;;;;;;4.39;54.25;102893.34;5112572;27;20133;-71
2022/12/17 23:04:12;;;;;;;111.17;32.50;;;;;;;4.07;54.50;102897.84;5114425;27;20284;-71
2022/12/17 23:06:37;;;;;;;113.77;30.60;;;;;;;3.97;55.49;102905.94;5111913;27;20316;-71
2022/12/17 23:09:03;;;;;;;126.47;32.10;;;;;;;3.87;54.83;102894.25;5131726;27;20311;-71
2022/12/17 23:11:30;;;;;;;112.83;32.07;;;;;;;3.80;55.86;102898.22;5114228;27;20030;-71
2022/12/17 23:13:55;;;;;;;114.00;31.87;;;;;;;3.43;56.69;102891.13;5111477;27;20030;-71
2022/12/17 23:16:21;;;;;;;130.43;33.97;;;;;;;4.54;53.77;102890.59;5111014;27;20289;-71
2022/12/17 23:18:48;;;;;;;113.57;30.40;;;;;;;5.21;51.84;102882.47;5114020;27;20467;-71
2022/12/17 23:21:23;;;;;;;118.50;32.80;;;;;;;5.05;51.89;102885.19;5131313;27;20027;-71
2022/12/17 23:23:50;;;;;;;119.37;33.77;;;;;;;4.71;53.30;102883.63;5111132;28;20817;-71
2022/12/17 23:26:21;;;;;;;123.13;36.13;;;;;;;4.19;54.74;102884.59;5105725;27;20323;-71
2022/12/17 23:28:47;;;;;;;119.13;35.00;;;;;;;4.53;53.11;102884.56;5113048;27;20738;-71
2022/12/17 23:31:15;;;;;;;125.07;36.80;;;;;;;4.83;52.16;102884.19;5131638;27;20265;-71
2022/12/17 23:33:41;;;;;;;133.93;36.33;;;;;;;5.92;49.33;102874.25;5114017;27;20023;-71
2022/12/17 23:36:11;;;;;;;123.37;35.87;;;;;;;5.21;50.93;102884.19;5129421;27;20289;-71
2022/12/17 23:38:38;;;;;;;127.83;32.27;;;;;;;4.16;53.16;102877.59;5110919;27;20281;-71
2022/12/17 23:41:09;;;;;;;111.67;31.50;;;;;;;4.58;53.60;102884.75;5132248;27;20359;-71
2022/12/17 23:43:36;;;;;;;108.67;31.17;;;;;;;3.82;53.98;102875.91;5112374;28;20375;-71
2022/12/17 23:46:01;;;;;;;110.83;30.73;;;;;;;3.73;54.58;102872.84;5131245;27;20019;-71
2022/12/17 23:48:29;;;;;;;101.90;29.63;;;;;;;3.69;55.69;102878.69;5111418;27;20787;-71
2022/12/17 23:50:55;;;;;;;103.97;30.13;;;;;;;4.67;53.37;102872.25;5107853;28;20028;-71
2022/12/17 23:53:20;;;;;;;91.13;25.03;;;;;;;3.59;55.02;102871.28;5112022;28;20356;-71
2022/12/17 23:55:45;;;;;;;117.90;32.70;;;;;;;3.84;55.94;102863.91;5112771;28;20023;-71
2022/12/17 23:58:11;;;;;;;118.97;31.93;;;;;;;3.78;55.18;102863.63;5123903;27;20072;-71
